sensor_id;sensor_type;location;lat;lon;timestamp;P1;durP1;ratioP1;P2;durP2;ratioP2
4583;SDS011;2304;47.606;12.186;2023-07-16T00:02:47;6.07;;;4.93;;
4583;SDS011;2304;47.606;12.186;2023-07-16T00:07:50;7.33;;;5.20;;
4583;SDS011;2304;47.606;12.186;2023-07-16T00:12:52;6.77;;;5.30;;
4583;SDS011;2304;47.606;12.186;2023-07-16T00:17:53;9.60;;;5.13;;
4583;SDS011;2304;47.606;12.186;2023-07-16T00:22:57;13.70;;;6.07;;
4583;SDS011;2304;47.606;12.186;2023-07-16T00:27:59;7.30;;;5.40;;
4583;SDS011;2304;47.606;12.186;2023-07-16T00:33:00;6.93;;;5.37;;
4583;SDS011;2304;47.606;12.186;2023-07-16T00:38:04;6.73;;;4.93;;
4583;SDS011;2304;47.606;12.186;2023-07-16T00:43:05;10.00;;;5.67;;
4583;SDS011;2304;47.606;12.186;2023-07-16T00:48:07;5.27;;;4.43;;
4583;SDS011;2304;47.606;12.186;2023-07-16T00:53:10;6.60;;;4.07;;
4583;SDS011;2304;47.606;12.186;2023-07-16T00:58:14;7.33;;;4.40;;
4583;SDS011;2304;47.606;12.186;2023-07-16T01:03:15;4.90;;;4.17;;
4583;SDS011;2304;47.606;12.186;2023-07-16T01:08:20;9.70;;;4.40;;
4583;SDS011;2304;47.606;12.186;2023-07-16T01:13:28;6.43;;;4.23;;
4583;SDS011;2304;47.606;12.186;2023-07-16T01:18:30;7.67;;;4.07;;
4583;SDS011;2304;47.606;12.186;2023-07-16T01:23:54;6.70;;;4.97;;
4583;SDS011;2304;47.606;12.186;2023-07-16T01:29:10;5.03;;;4.20;;
4583;SDS011;2304;47.606;12.186;2023-07-16T01:34:22;5.87;;;4.30;;
4583;SDS011;2304;47.606;12.186;2023-07-16T01:39:28;6.70;;;4.97;;
4583;SDS011;2304;47.606;12.186;2023-07-16T01:44:31;8.73;;;4.90;;
4583;SDS011;2304;47.606;12.186;2023-07-16T01:49:33;7.30;;;4.90;;
4583;SDS011;2304;47.606;12.186;2023-07-16T01:54:35;5.70;;;4.50;;
4583;SDS011;2304;47.606;12.186;2023-07-16T01:59:39;10.23;;;4.87;;
4583;SDS011;2304;47.606;12.186;2023-07-16T02:04:40;12.57;;;5.27;;
4583;SDS011;2304;47.606;12.186;2023-07-16T02:09:42;9.63;;;5.50;;
4583;SDS011;2304;47.606;12.186;2023-07-16T02:14:45;8.70;;;4.90;;
4583;SDS011;2304;47.606;12.186;2023-07-16T02:19:47;6.90;;;5.27;;
4583;SDS011;2304;47.606;12.186;2023-07-16T02:24:49;6.37;;;4.83;;
4583;SDS011;2304;47.606;12.186;2023-07-16T02:29:52;7.17;;;4.80;;
4583;SDS011;2304;47.606;12.186;2023-07-16T02:34:54;7.47;;;4.70;;
4583;SDS011;2304;47.606;12.186;2023-07-16T02:39:56;8.23;;;4.63;;
4583;SDS011;2304;47.606;12.186;2023-07-16T02:44:59;5.63;;;4.20;;
4583;SDS011;2304;47.606;12.186;2023-07-16T02:50:00;7.67;;;4.50;;
4583;SDS011;2304;47.606;12.186;2023-07-16T02:55:03;9.03;;;5.13;;
4583;SDS011;2304;47.606;12.186;2023-07-16T03:00:08;7.43;;;4.50;;
4583;SDS011;2304;47.606;12.186;2023-07-16T03:05:10;5.47;;;4.80;;
4583;SDS011;2304;47.606;12.186;2023-07-16T03:10:12;6.87;;;4.70;;
4583;SDS011;2304;47.606;12.186;2023-07-16T03:15:15;6.13;;;4.20;;
4583;SDS011;2304;47.606;12.186;2023-07-16T03:20:17;6.30;;;4.40;;
4583;SDS011;2304;47.606;12.186;2023-07-16T03:25:19;10.13;;;5.00;;
4583;SDS011;2304;47.606;12.186;2023-07-16T03:30:22;6.43;;;4.17;;
4583;SDS011;2304;47.606;12.186;2023-07-16T03:35:24;6.23;;;4.27;;
4583;SDS011;2304;47.606;12.186;2023-07-16T03:40:27;7.93;;;4.77;;
4583;SDS011;2304;47.606;12.186;2023-07-16T03:45:30;5.80;;;4.30;;
4583;SDS011;2304;47.606;12.186;2023-07-16T03:50:32;9.87;;;5.27;;
4583;SDS011;2304;47.606;12.186;2023-07-16T03:55:34;7.07;;;4.80;;
4583;SDS011;2304;47.606;12.186;2023-07-16T04:00:37;7.40;;;5.20;;
4583;SDS011;2304;47.606;12.186;2023-07-16T04:05:39;8.67;;;4.87;;
4583;SDS011;2304;47.606;12.186;2023-07-16T04:10:41;8.00;;;5.00;;
4583;SDS011;2304;47.606;12.186;2023-07-16T04:15:44;7.80;;;5.03;;
4583;SDS011;2304;47.606;12.186;2023-07-16T04:20:46;6.20;;;4.60;;
4583;SDS011;2304;47.606;12.186;2023-07-16T04:25:50;6.30;;;4.70;;
4583;SDS011;2304;47.606;12.186;2023-07-16T04:30:54;7.23;;;5.07;;
4583;SDS011;2304;47.606;12.186;2023-07-16T04:35:56;6.87;;;4.70;;
4583;SDS011;2304;47.606;12.186;2023-07-16T04:40:58;11.03;;;5.50;;
4583;SDS011;2304;47.606;12.186;2023-07-16T04:46:01;7.70;;;5.07;;
4583;SDS011;2304;47.606;12.186;2023-07-16T04:51:03;5.60;;;5.00;;
4583;SDS011;2304;47.606;12.186;2023-07-16T04:56:10;5.90;;;4.50;;
4583;SDS011;2304;47.606;12.186;2023-07-16T05:01:14;8.33;;;5.50;;
4583;SDS011;2304;47.606;12.186;2023-07-16T05:06:15;6.87;;;5.00;;
4583;SDS011;2304;47.606;12.186;2023-07-16T05:11:17;6.50;;;5.00;;
4583;SDS011;2304;47.606;12.186;2023-07-16T05:16:20;7.80;;;4.97;;
4583;SDS011;2304;47.606;12.186;2023-07-16T05:21:22;8.50;;;5.67;;
4583;SDS011;2304;47.606;12.186;2023-07-16T05:26:24;7.40;;;5.57;;
4583;SDS011;2304;47.606;12.186;2023-07-16T05:31:27;7.23;;;5.07;;
4583;SDS011;2304;47.606;12.186;2023-07-16T05:36:29;5.83;;;4.77;;
4583;SDS011;2304;47.606;12.186;2023-07-16T05:41:30;10.43;;;5.30;;
4583;SDS011;2304;47.606;12.186;2023-07-16T05:46:34;9.33;;;5.37;;
4583;SDS011;2304;47.606;12.186;2023-07-16T05:51:35;8.27;;;5.43;;
4583;SDS011;2304;47.606;12.186;2023-07-16T05:56:37;7.00;;;5.97;;
4583;SDS011;2304;47.606;12.186;2023-07-16T06:01:40;8.40;;;5.63;;
4583;SDS011;2304;47.606;12.186;2023-07-16T06:06:42;8.40;;;5.57;;
4583;SDS011;2304;47.606;12.186;2023-07-16T06:11:45;7.43;;;5.30;;
4583;SDS011;2304;47.606;12.186;2023-07-16T06:16:49;7.27;;;5.37;;
4583;SDS011;2304;47.606;12.186;2023-07-16T06:21:50;7.37;;;5.20;;
4583;SDS011;2304;47.606;12.186;2023-07-16T06:26:52;8.57;;;5.90;;
4583;SDS011;2304;47.606;12.186;2023-07-16T06:31:56;11.47;;;5.90;;
4583;SDS011;2304;47.606;12.186;2023-07-16T06:36:58;10.60;;;6.63;;
4583;SDS011;2304;47.606;12.186;2023-07-16T06:42:00;6.87;;;5.73;;
4583;SDS011;2304;47.606;12.186;2023-07-16T06:47:03;7.80;;;5.10;;
4583;SDS011;2304;47.606;12.186;2023-07-16T06:52:06;5.90;;;3.87;;
4583;SDS011;2304;47.606;12.186;2023-07-16T06:57:08;4.10;;;3.00;;
4583;SDS011;2304;47.606;12.186;2023-07-16T07:02:11;6.10;;;3.60;;
4583;SDS011;2304;47.606;12.186;2023-07-16T07:07:13;4.87;;;3.73;;
4583;SDS011;2304;47.606;12.186;2023-07-16T07:12:15;4.33;;;3.60;;
4583;SDS011;2304;47.606;12.186;2023-07-16T07:17:18;3.87;;;2.83;;
4583;SDS011;2304;47.606;12.186;2023-07-16T07:22:20;4.27;;;3.10;;
4583;SDS011;2304;47.606;12.186;2023-07-16T07:27:22;5.20;;;3.17;;
4583;SDS011;2304;47.606;12.186;2023-07-16T07:32:25;3.97;;;3.33;;
4583;SDS011;2304;47.606;12.186;2023-07-16T07:37:27;5.40;;;3.30;;
4583;SDS011;2304;47.606;12.186;2023-07-16T07:42:29;3.90;;;3.23;;
4583;SDS011;2304;47.606;12.186;2023-07-16T07:47:32;4.27;;;2.77;;
4583;SDS011;2304;47.606;12.186;2023-07-16T07:52:34;3.47;;;2.50;;
4583;SDS011;2304;47.606;12.186;2023-07-16T07:57:36;3.73;;;3.00;;
4583;SDS011;2304;47.606;12.186;2023-07-16T08:02:39;4.00;;;2.20;;
4583;SDS011;2304;47.606;12.186;2023-07-16T08:07:41;3.10;;;2.67;;
4583;SDS011;2304;47.606;12.186;2023-07-16T08:12:43;5.00;;;3.00;;
4583;SDS011;2304;47.606;12.186;2023-07-16T08:17:46;4.53;;;3.00;;
4583;SDS011;2304;47.606;12.186;2023-07-16T08:22:49;3.50;;;2.80;;
4583;SDS011;2304;47.606;12.186;2023-07-16T08:27:50;3.70;;;2.70;;
4583;SDS011;2304;47.606;12.186;2023-07-16T08:32:54;4.23;;;2.50;;
4583;SDS011;2304;47.606;12.186;2023-07-16T08:37:56;3.80;;;3.00;;
4583;SDS011;2304;47.606;12.186;2023-07-16T08:42:57;4.30;;;3.60;;
4583;SDS011;2304;47.606;12.186;2023-07-16T08:48:01;3.77;;;2.47;;
4583;SDS011;2304;47.606;12.186;2023-07-16T08:53:04;5.43;;;3.00;;
4583;SDS011;2304;47.606;12.186;2023-07-16T08:58:06;4.00;;;3.00;;
4583;SDS011;2304;47.606;12.186;2023-07-16T09:03:09;4.13;;;2.40;;
4583;SDS011;2304;47.606;12.186;2023-07-16T09:08:12;2.83;;;2.13;;
4583;SDS011;2304;47.606;12.186;2023-07-16T09:13:17;2.57;;;2.20;;
4583;SDS011;2304;47.606;12.186;2023-07-16T09:18:22;3.53;;;2.27;;
4583;SDS011;2304;47.606;12.186;2023-07-16T09:23:25;4.40;;;2.10;;
4583;SDS011;2304;47.606;12.186;2023-07-16T09:28:27;2.53;;;1.90;;
4583;SDS011;2304;47.606;12.186;2023-07-16T09:33:33;2.60;;;2.10;;
4583;SDS011;2304;47.606;12.186;2023-07-16T09:38:35;2.67;;;1.70;;
4583;SDS011;2304;47.606;12.186;2023-07-16T09:43:37;3.47;;;2.07;;
4583;SDS011;2304;47.606;12.186;2023-07-16T09:48:41;3.60;;;2.00;;
4583;SDS011;2304;47.606;12.186;2023-07-16T09:53:43;3.70;;;1.80;;
4583;SDS011;2304;47.606;12.186;2023-07-16T09:58:47;3.37;;;2.03;;
4583;SDS011;2304;47.606;12.186;2023-07-16T10:03:52;2.97;;;2.10;;
4583;SDS011;2304;47.606;12.186;2023-07-16T10:08:54;2.63;;;1.70;;
4583;SDS011;2304;47.606;12.186;2023-07-16T10:13:57;2.67;;;1.90;;
4583;SDS011;2304;47.606;12.186;2023-07-16T10:19:00;2.90;;;2.00;;
4583;SDS011;2304;47.606;12.186;2023-07-16T10:24:03;2.07;;;1.70;;
4583;SDS011;2304;47.606;12.186;2023-07-16T10:29:05;2.87;;;2.20;;
4583;SDS011;2304;47.606;12.186;2023-07-16T10:34:09;3.30;;;2.10;;
4583;SDS011;2304;47.606;12.186;2023-07-16T10:39:11;2.95;;;2.12;;
4583;SDS011;2304;47.606;12.186;2023-07-16T10:44:13;3.30;;;2.40;;
4583;SDS011;2304;47.606;12.186;2023-07-16T10:49:25;2.83;;;1.95;;
4583;SDS011;2304;47.606;12.186;2023-07-16T10:54:28;3.12;;;2.22;;
4583;SDS011;2304;47.606;12.186;2023-07-16T10:59:30;3.45;;;2.20;;
4583;SDS011;2304;47.606;12.186;2023-07-16T11:04:34;3.67;;;2.17;;
4583;SDS011;2304;47.606;12.186;2023-07-16T11:09:40;4.78;;;2.40;;
4583;SDS011;2304;47.606;12.186;2023-07-16T11:14:44;3.65;;;1.87;;
4583;SDS011;2304;47.606;12.186;2023-07-16T11:19:48;2.42;;;1.85;;
4583;SDS011;2304;47.606;12.186;2023-07-16T11:24:51;2.45;;;1.90;;
4583;SDS011;2304;47.606;12.186;2023-07-16T11:29:54;4.07;;;2.25;;
4583;SDS011;2304;47.606;12.186;2023-07-16T11:35:05;2.65;;;1.87;;
4583;SDS011;2304;47.606;12.186;2023-07-16T11:40:09;2.10;;;1.60;;
4583;SDS011;2304;47.606;12.186;2023-07-16T11:45:15;2.95;;;2.00;;
4583;SDS011;2304;47.606;12.186;2023-07-16T11:50:19;5.07;;;2.10;;
4583;SDS011;2304;47.606;12.186;2023-07-16T11:55:21;2.65;;;1.95;;
4583;SDS011;2304;47.606;12.186;2023-07-16T12:00:23;3.08;;;2.20;;
4583;SDS011;2304;47.606;12.186;2023-07-16T12:05:26;2.65;;;2.28;;
4583;SDS011;2304;47.606;12.186;2023-07-16T12:10:28;3.08;;;2.10;;
4583;SDS011;2304;47.606;12.186;2023-07-16T12:15:30;4.87;;;2.10;;
4583;SDS011;2304;47.606;12.186;2023-07-16T12:20:35;2.35;;;1.98;;
4583;SDS011;2304;47.606;12.186;2023-07-16T12:25:37;3.20;;;2.22;;
4583;SDS011;2304;47.606;12.186;2023-07-16T12:30:39;3.83;;;2.37;;
4583;SDS011;2304;47.606;12.186;2023-07-16T12:35:42;2.50;;;2.03;;
4583;SDS011;2304;47.606;12.186;2023-07-16T12:40:44;2.87;;;2.22;;
4583;SDS011;2304;47.606;12.186;2023-07-16T12:45:46;3.30;;;2.40;;
4583;SDS011;2304;47.606;12.186;2023-07-16T12:50:49;3.35;;;2.35;;
4583;SDS011;2304;47.606;12.186;2023-07-16T12:55:51;3.45;;;2.65;;
4583;SDS011;2304;47.606;12.186;2023-07-16T13:00:53;6.72;;;2.62;;
4583;SDS011;2304;47.606;12.186;2023-07-16T13:05:56;3.25;;;2.65;;
4583;SDS011;2304;47.606;12.186;2023-07-16T13:10:58;10.70;;;3.50;;
4583;SDS011;2304;47.606;12.186;2023-07-16T13:16:00;3.90;;;3.20;;
4583;SDS011;2304;47.606;12.186;2023-07-16T13:21:03;3.97;;;2.75;;
4583;SDS011;2304;47.606;12.186;2023-07-16T13:26:05;4.53;;;2.80;;
4583;SDS011;2304;47.606;12.186;2023-07-16T13:31:07;3.33;;;3.03;;
4583;SDS011;2304;47.606;12.186;2023-07-16T13:36:10;3.55;;;3.25;;
4583;SDS011;2304;47.606;12.186;2023-07-16T13:41:12;3.75;;;3.28;;
4583;SDS011;2304;47.606;12.186;2023-07-16T13:46:14;4.25;;;3.17;;
4583;SDS011;2304;47.606;12.186;2023-07-16T13:51:17;4.12;;;3.45;;
4583;SDS011;2304;47.606;12.186;2023-07-16T13:56:19;4.18;;;3.25;;
4583;SDS011;2304;47.606;12.186;2023-07-16T14:01:21;4.43;;;3.33;;
4583;SDS011;2304;47.606;12.186;2023-07-16T14:06:25;3.75;;;2.65;;
4583;SDS011;2304;47.606;12.186;2023-07-16T14:11:27;2.97;;;2.55;;
4583;SDS011;2304;47.606;12.186;2023-07-16T14:16:28;3.33;;;2.75;;
4583;SDS011;2304;47.606;12.186;2023-07-16T14:21:32;5.55;;;3.20;;
4583;SDS011;2304;47.606;12.186;2023-07-16T14:26:33;7.05;;;3.22;;
4583;SDS011;2304;47.606;12.186;2023-07-16T14:31:35;4.00;;;3.00;;
4583;SDS011;2304;47.606;12.186;2023-07-16T14:36:40;3.87;;;2.83;;
4583;SDS011;2304;47.606;12.186;2023-07-16T14:41:42;3.00;;;2.70;;
4583;SDS011;2304;47.606;12.186;2023-07-16T14:46:43;4.78;;;2.92;;
4583;SDS011;2304;47.606;12.186;2023-07-16T14:51:47;4.35;;;3.12;;
4583;SDS011;2304;47.606;12.186;2023-07-16T14:56:48;4.00;;;3.50;;
4583;SDS011;2304;47.606;12.186;2023-07-16T15:01:50;4.87;;;2.90;;
4583;SDS011;2304;47.606;12.186;2023-07-16T15:06:53;3.95;;;2.90;;
4583;SDS011;2304;47.606;12.186;2023-07-16T15:11:56;3.30;;;2.80;;
4583;SDS011;2304;47.606;12.186;2023-07-16T15:16:58;3.60;;;2.90;;
4583;SDS011;2304;47.606;12.186;2023-07-16T15:22:01;3.90;;;2.90;;
4583;SDS011;2304;47.606;12.186;2023-07-16T15:27:03;4.00;;;2.77;;
4583;SDS011;2304;47.606;12.186;2023-07-16T15:32:06;3.60;;;2.90;;
4583;SDS011;2304;47.606;12.186;2023-07-16T15:37:10;4.63;;;2.50;;
4583;SDS011;2304;47.606;12.186;2023-07-16T15:42:12;3.80;;;2.67;;
4583;SDS011;2304;47.606;12.186;2023-07-16T15:47:14;2.83;;;2.33;;
4583;SDS011;2304;47.606;12.186;2023-07-16T15:52:17;4.20;;;3.47;;
4583;SDS011;2304;47.606;12.186;2023-07-16T15:57:19;4.57;;;3.00;;
4583;SDS011;2304;47.606;12.186;2023-07-16T16:02:21;4.53;;;3.60;;
4583;SDS011;2304;47.606;12.186;2023-07-16T16:07:24;5.70;;;3.90;;
4583;SDS011;2304;47.606;12.186;2023-07-16T16:12:26;4.03;;;3.47;;
4583;SDS011;2304;47.606;12.186;2023-07-16T16:17:28;4.60;;;3.07;;
4583;SDS011;2304;47.606;12.186;2023-07-16T16:22:31;9.10;;;3.03;;
4583;SDS011;2304;47.606;12.186;2023-07-16T16:27:33;3.60;;;2.93;;
4583;SDS011;2304;47.606;12.186;2023-07-16T16:32:35;3.87;;;2.90;;
4583;SDS011;2304;47.606;12.186;2023-07-16T16:37:38;3.87;;;3.40;;
4583;SDS011;2304;47.606;12.186;2023-07-16T16:42:40;3.33;;;2.57;;
4583;SDS011;2304;47.606;12.186;2023-07-16T16:47:43;3.20;;;2.90;;
4583;SDS011;2304;47.606;12.186;2023-07-16T16:52:46;4.23;;;2.70;;
4583;SDS011;2304;47.606;12.186;2023-07-16T16:57:48;5.07;;;2.80;;
4583;SDS011;2304;47.606;12.186;2023-07-16T17:02:50;4.30;;;2.80;;
4583;SDS011;2304;47.606;12.186;2023-07-16T17:07:53;4.57;;;3.10;;
4583;SDS011;2304;47.606;12.186;2023-07-16T17:12:57;3.43;;;2.80;;
4583;SDS011;2304;47.606;12.186;2023-07-16T17:17:59;5.73;;;3.27;;
4583;SDS011;2304;47.606;12.186;2023-07-16T17:23:02;4.50;;;3.00;;
4583;SDS011;2304;47.606;12.186;2023-07-16T17:28:04;4.00;;;3.10;;
4583;SDS011;2304;47.606;12.186;2023-07-16T17:33:06;4.97;;;3.13;;
4583;SDS011;2304;47.606;12.186;2023-07-16T17:38:10;4.40;;;3.20;;
4583;SDS011;2304;47.606;12.186;2023-07-16T17:43:12;4.03;;;3.20;;
4583;SDS011;2304;47.606;12.186;2023-07-16T17:48:15;3.90;;;3.07;;
4583;SDS011;2304;47.606;12.186;2023-07-16T17:53:18;5.20;;;3.60;;
4583;SDS011;2304;47.606;12.186;2023-07-16T17:58:19;5.43;;;3.60;;
4583;SDS011;2304;47.606;12.186;2023-07-16T18:03:21;5.80;;;3.43;;
4583;SDS011;2304;47.606;12.186;2023-07-16T18:08:25;3.90;;;3.17;;
4583;SDS011;2304;47.606;12.186;2023-07-16T18:13:27;6.60;;;3.23;;
4583;SDS011;2304;47.606;12.186;2023-07-16T18:18:29;6.07;;;3.47;;
4583;SDS011;2304;47.606;12.186;2023-07-16T18:23:33;7.33;;;3.50;;
4583;SDS011;2304;47.606;12.186;2023-07-16T18:28:35;3.90;;;3.10;;
4583;SDS011;2304;47.606;12.186;2023-07-16T18:33:37;4.90;;;3.27;;
4583;SDS011;2304;47.606;12.186;2023-07-16T18:38:40;5.73;;;3.30;;
4583;SDS011;2304;47.606;12.186;2023-07-16T18:43:42;4.73;;;3.37;;
4583;SDS011;2304;47.606;12.186;2023-07-16T18:48:45;4.37;;;3.50;;
4583;SDS011;2304;47.606;12.186;2023-07-16T18:53:48;5.03;;;3.67;;
4583;SDS011;2304;47.606;12.186;2023-07-16T18:58:50;4.27;;;3.63;;
4583;SDS011;2304;47.606;12.186;2023-07-16T19:03:52;7.43;;;3.60;;
4583;SDS011;2304;47.606;12.186;2023-07-16T19:08:55;4.40;;;3.47;;
4583;SDS011;2304;47.606;12.186;2023-07-16T19:13:57;5.97;;;3.53;;
4583;SDS011;2304;47.606;12.186;2023-07-16T19:18:59;5.33;;;3.23;;
4583;SDS011;2304;47.606;12.186;2023-07-16T19:24:02;6.10;;;3.80;;
4583;SDS011;2304;47.606;12.186;2023-07-16T19:29:04;4.83;;;3.80;;
4583;SDS011;2304;47.606;12.186;2023-07-16T19:34:06;5.53;;;3.63;;
4583;SDS011;2304;47.606;12.186;2023-07-16T19:39:12;4.47;;;3.07;;
4583;SDS011;2304;47.606;12.186;2023-07-16T19:44:13;6.33;;;3.23;;
4583;SDS011;2304;47.606;12.186;2023-07-16T19:49:15;7.80;;;3.60;;
4583;SDS011;2304;47.606;12.186;2023-07-16T19:54:19;5.80;;;3.93;;
4583;SDS011;2304;47.606;12.186;2023-07-16T19:59:20;5.10;;;4.20;;
4583;SDS011;2304;47.606;12.186;2023-07-16T20:04:22;7.23;;;3.47;;
4583;SDS011;2304;47.606;12.186;2023-07-16T20:09:25;5.10;;;3.23;;
4583;SDS011;2304;47.606;12.186;2023-07-16T20:14:27;6.43;;;3.70;;
4583;SDS011;2304;47.606;12.186;2023-07-16T20:19:29;4.83;;;3.63;;
4583;SDS011;2304;47.606;12.186;2023-07-16T20:24:33;3.80;;;3.00;;
4583;SDS011;2304;47.606;12.186;2023-07-16T20:29:35;4.43;;;3.53;;
4583;SDS011;2304;47.606;12.186;2023-07-16T20:34:37;4.40;;;3.80;;
4583;SDS011;2304;47.606;12.186;2023-07-16T20:39:40;6.97;;;3.70;;
4583;SDS011;2304;47.606;12.186;2023-07-16T20:44:49;5.80;;;3.63;;
4583;SDS011;2304;47.606;12.186;2023-07-16T20:50:16;4.50;;;3.70;;
4583;SDS011;2304;47.606;12.186;2023-07-16T20:55:21;4.13;;;3.30;;
4583;SDS011;2304;47.606;12.186;2023-07-16T21:00:23;4.40;;;3.40;;
4583;SDS011;2304;47.606;12.186;2023-07-16T21:05:30;4.17;;;3.77;;
4583;SDS011;2304;47.606;12.186;2023-07-16T21:10:34;4.20;;;3.80;;
4583;SDS011;2304;47.606;12.186;2023-07-16T21:15:36;5.00;;;3.80;;
4583;SDS011;2304;47.606;12.186;2023-07-16T21:20:38;4.50;;;3.47;;
4583;SDS011;2304;47.606;12.186;2023-07-16T21:25:41;7.50;;;3.77;;
4583;SDS011;2304;47.606;12.186;2023-07-16T21:30:44;4.77;;;3.83;;
4583;SDS011;2304;47.606;12.186;2023-07-16T21:35:46;6.07;;;3.50;;
4583;SDS011;2304;47.606;12.186;2023-07-16T21:40:49;5.50;;;4.20;;
4583;SDS011;2304;47.606;12.186;2023-07-16T21:45:52;4.60;;;3.93;;
4583;SDS011;2304;47.606;12.186;2023-07-16T21:50:54;4.40;;;3.60;;
4583;SDS011;2304;47.606;12.186;2023-07-16T21:55:57;6.23;;;4.37;;
4583;SDS011;2304;47.606;12.186;2023-07-16T22:00:59;7.00;;;3.97;;
4583;SDS011;2304;47.606;12.186;2023-07-16T22:06:02;4.30;;;3.60;;
4583;SDS011;2304;47.606;12.186;2023-07-16T22:11:06;6.00;;;4.03;;
4583;SDS011;2304;47.606;12.186;2023-07-16T22:16:08;5.83;;;3.87;;
4583;SDS011;2304;47.606;12.186;2023-07-16T22:21:09;5.37;;;4.13;;
4583;SDS011;2304;47.606;12.186;2023-07-16T22:26:13;4.70;;;3.97;;
4583;SDS011;2304;47.606;12.186;2023-07-16T22:31:15;6.93;;;3.60;;
4583;SDS011;2304;47.606;12.186;2023-07-16T22:36:17;6.57;;;3.90;;
4583;SDS011;2304;47.606;12.186;2023-07-16T22:41:20;7.70;;;3.83;;
4583;SDS011;2304;47.606;12.186;2023-07-16T22:46:22;4.63;;;3.70;;
4583;SDS011;2304;47.606;12.186;2023-07-16T22:51:24;5.37;;;4.33;;
4583;SDS011;2304;47.606;12.186;2023-07-16T22:56:27;6.90;;;4.17;;
4583;SDS011;2304;47.606;12.186;2023-07-16T23:01:29;6.67;;;4.20;;
4583;SDS011;2304;47.606;12.186;2023-07-16T23:06:31;7.30;;;4.33;;
4583;SDS011;2304;47.606;12.186;2023-07-16T23:11:34;6.00;;;4.30;;
4583;SDS011;2304;47.606;12.186;2023-07-16T23:16:36;6.03;;;4.67;;
4583;SDS011;2304;47.606;12.186;2023-07-16T23:21:38;6.00;;;4.30;;
4583;SDS011;2304;47.606;12.186;2023-07-16T23:26:41;4.63;;;3.63;;
4583;SDS011;2304;47.606;12.186;2023-07-16T23:31:43;5.73;;;3.97;;
4583;SDS011;2304;47.606;12.186;2023-07-16T23:36:45;5.47;;;3.87;;
4583;SDS011;2304;47.606;12.186;2023-07-16T23:41:48;5.00;;;4.13;;
4583;SDS011;2304;47.606;12.186;2023-07-16T23:46:51;7.43;;;3.97;;
4583;SDS011;2304;47.606;12.186;2023-07-16T23:51:53;5.90;;;4.10;;
4583;SDS011;2304;47.606;12.186;2023-07-16T23:56:57;5.63;;;4.13;;
